sensor_id;sensor_type;location;lat;lon;timestamp;P1;durP1;ratioP1;P2;durP2;ratioP2
10246;SDS011;5168;47.854;7.944;2024-03-08T00:00:12;25.50;;;16.70;;
10246;SDS011;5168;47.854;7.944;2024-03-08T00:02:39;26.67;;;16.47;;
10246;SDS011;5168;47.854;7.944;2024-03-08T00:05:06;26.37;;;16.87;;
10246;SDS011;5168;47.854;7.944;2024-03-08T00:07:35;25.03;;;16.43;;
10246;SDS011;5168;47.854;7.944;2024-03-08T00:10:05;22.97;;;15.23;;
10246;SDS011;5168;47.854;7.944;2024-03-08T00:12:32;23.47;;;15.57;;
10246;SDS011;5168;47.854;7.944;2024-03-08T00:14:58;26.30;;;16.60;;
10246;SDS011;5168;47.854;7.944;2024-03-08T00:17:23;26.50;;;16.77;;
10246;SDS011;5168;47.854;7.944;2024-03-08T00:19:50;26.73;;;16.63;;
10246;SDS011;5168;47.854;7.944;2024-03-08T00:22:16;25.67;;;16.43;;
10246;SDS011;5168;47.854;7.944;2024-03-08T00:24:42;28.20;;;17.77;;
10246;SDS011;5168;47.854;7.944;2024-03-08T00:27:08;26.13;;;17.30;;
10246;SDS011;5168;47.854;7.944;2024-03-08T00:29:37;24.47;;;15.93;;
10246;SDS011;5168;47.854;7.944;2024-03-08T00:32:05;24.73;;;16.63;;
10246;SDS011;5168;47.854;7.944;2024-03-08T00:34:34;28.23;;;17.27;;
10246;SDS011;5168;47.854;7.944;2024-03-08T00:37:01;25.37;;;15.50;;
10246;SDS011;5168;47.854;7.944;2024-03-08T00:39:27;25.37;;;15.70;;
10246;SDS011;5168;47.854;7.944;2024-03-08T00:41:53;24.63;;;14.40;;
10246;SDS011;5168;47.854;7.944;2024-03-08T00:44:18;24.97;;;15.33;;
10246;SDS011;5168;47.854;7.944;2024-03-08T00:46:44;23.87;;;15.13;;
10246;SDS011;5168;47.854;7.944;2024-03-08T00:49:10;23.13;;;14.60;;
10246;SDS011;5168;47.854;7.944;2024-03-08T00:51:37;24.60;;;15.43;;
10246;SDS011;5168;47.854;7.944;2024-03-08T00:54:03;24.40;;;15.83;;
10246;SDS011;5168;47.854;7.944;2024-03-08T00:56:29;22.87;;;16.17;;
10246;SDS011;5168;47.854;7.944;2024-03-08T00:58:54;24.77;;;14.93;;
10246;SDS011;5168;47.854;7.944;2024-03-08T01:01:20;20.30;;;13.97;;
10246;SDS011;5168;47.854;7.944;2024-03-08T01:03:46;19.93;;;14.37;;
10246;SDS011;5168;47.854;7.944;2024-03-08T01:06:11;22.33;;;14.07;;
10246;SDS011;5168;47.854;7.944;2024-03-08T01:08:37;20.20;;;13.00;;
10246;SDS011;5168;47.854;7.944;2024-03-08T01:11:03;19.57;;;12.70;;
10246;SDS011;5168;47.854;7.944;2024-03-08T01:13:30;18.60;;;13.13;;
10246;SDS011;5168;47.854;7.944;2024-03-08T01:15:55;19.17;;;11.87;;
10246;SDS011;5168;47.854;7.944;2024-03-08T01:18:21;21.03;;;13.67;;
10246;SDS011;5168;47.854;7.944;2024-03-08T01:20:47;23.53;;;12.77;;
10246;SDS011;5168;47.854;7.944;2024-03-08T01:23:13;20.93;;;13.53;;
10246;SDS011;5168;47.854;7.944;2024-03-08T01:25:39;19.17;;;12.83;;
10246;SDS011;5168;47.854;7.944;2024-03-08T01:28:06;19.37;;;13.10;;
10246;SDS011;5168;47.854;7.944;2024-03-08T01:30:32;20.33;;;12.53;;
10246;SDS011;5168;47.854;7.944;2024-03-08T01:32:59;18.03;;;12.23;;
10246;SDS011;5168;47.854;7.944;2024-03-08T01:35:25;17.23;;;11.10;;
10246;SDS011;5168;47.854;7.944;2024-03-08T01:37:51;14.63;;;10.63;;
10246;SDS011;5168;47.854;7.944;2024-03-08T01:40:17;18.27;;;12.10;;
10246;SDS011;5168;47.854;7.944;2024-03-08T01:42:42;17.17;;;11.87;;
10246;SDS011;5168;47.854;7.944;2024-03-08T01:45:08;15.70;;;10.53;;
10246;SDS011;5168;47.854;7.944;2024-03-08T01:47:34;14.83;;;9.93;;
10246;SDS011;5168;47.854;7.944;2024-03-08T01:50:00;17.53;;;11.47;;
10246;SDS011;5168;47.854;7.944;2024-03-08T01:52:28;16.50;;;10.70;;
10246;SDS011;5168;47.854;7.944;2024-03-08T01:54:56;14.23;;;9.93;;
10246;SDS011;5168;47.854;7.944;2024-03-08T01:57:25;14.67;;;10.10;;
10246;SDS011;5168;47.854;7.944;2024-03-08T01:59:52;17.50;;;12.47;;
10246;SDS011;5168;47.854;7.944;2024-03-08T02:02:20;18.47;;;11.03;;
10246;SDS011;5168;47.854;7.944;2024-03-08T02:04:47;16.37;;;11.33;;
10246;SDS011;5168;47.854;7.944;2024-03-08T02:07:13;16.17;;;11.20;;
10246;SDS011;5168;47.854;7.944;2024-03-08T02:09:39;15.27;;;10.13;;
10246;SDS011;5168;47.854;7.944;2024-03-08T02:12:06;13.93;;;9.73;;
10246;SDS011;5168;47.854;7.944;2024-03-08T02:14:32;12.13;;;8.70;;
10246;SDS011;5168;47.854;7.944;2024-03-08T02:17:01;12.20;;;8.43;;
10246;SDS011;5168;47.854;7.944;2024-03-08T02:19:27;11.97;;;8.63;;
10246;SDS011;5168;47.854;7.944;2024-03-08T02:21:53;11.23;;;8.20;;
10246;SDS011;5168;47.854;7.944;2024-03-08T02:24:19;10.17;;;8.17;;
10246;SDS011;5168;47.854;7.944;2024-03-08T02:26:44;11.17;;;8.13;;
10246;SDS011;5168;47.854;7.944;2024-03-08T02:29:11;12.20;;;8.53;;
10246;SDS011;5168;47.854;7.944;2024-03-08T02:31:36;10.80;;;8.27;;
10246;SDS011;5168;47.854;7.944;2024-03-08T02:34:04;11.27;;;7.97;;
10246;SDS011;5168;47.854;7.944;2024-03-08T02:36:30;11.43;;;7.77;;
10246;SDS011;5168;47.854;7.944;2024-03-08T02:39:00;10.90;;;7.00;;
10246;SDS011;5168;47.854;7.944;2024-03-08T02:41:29;9.17;;;6.97;;
10246;SDS011;5168;47.854;7.944;2024-03-08T02:43:55;8.87;;;6.93;;
10246;SDS011;5168;47.854;7.944;2024-03-08T02:46:20;8.53;;;6.50;;
10246;SDS011;5168;47.854;7.944;2024-03-08T02:48:46;9.87;;;6.53;;
10246;SDS011;5168;47.854;7.944;2024-03-08T02:51:11;9.13;;;6.53;;
10246;SDS011;5168;47.854;7.944;2024-03-08T02:53:38;6.57;;;5.37;;
10246;SDS011;5168;47.854;7.944;2024-03-08T02:56:04;6.93;;;5.67;;
10246;SDS011;5168;47.854;7.944;2024-03-08T02:58:33;6.60;;;5.43;;
10246;SDS011;5168;47.854;7.944;2024-03-08T03:00:59;6.73;;;5.70;;
10246;SDS011;5168;47.854;7.944;2024-03-08T03:03:25;7.57;;;5.07;;
10246;SDS011;5168;47.854;7.944;2024-03-08T03:05:51;6.80;;;5.20;;
10246;SDS011;5168;47.854;7.944;2024-03-08T03:08:20;6.17;;;5.00;;
10246;SDS011;5168;47.854;7.944;2024-03-08T03:10:46;4.90;;;4.20;;
10246;SDS011;5168;47.854;7.944;2024-03-08T03:13:11;4.40;;;3.77;;
10246;SDS011;5168;47.854;7.944;2024-03-08T03:15:39;3.73;;;3.00;;
10246;SDS011;5168;47.854;7.944;2024-03-08T03:18:06;3.97;;;3.43;;
10246;SDS011;5168;47.854;7.944;2024-03-08T03:20:32;7.53;;;4.77;;
10246;SDS011;5168;47.854;7.944;2024-03-08T03:23:02;5.97;;;4.10;;
10246;SDS011;5168;47.854;7.944;2024-03-08T03:25:28;5.27;;;3.93;;
10246;SDS011;5168;47.854;7.944;2024-03-08T03:27:59;3.97;;;3.57;;
10246;SDS011;5168;47.854;7.944;2024-03-08T03:30:24;4.17;;;3.67;;
10246;SDS011;5168;47.854;7.944;2024-03-08T03:32:58;4.30;;;3.90;;
10246;SDS011;5168;47.854;7.944;2024-03-08T03:35:27;3.77;;;3.37;;
10246;SDS011;5168;47.854;7.944;2024-03-08T03:37:54;3.60;;;3.07;;
10246;SDS011;5168;47.854;7.944;2024-03-08T03:40:29;4.57;;;3.43;;
10246;SDS011;5168;47.854;7.944;2024-03-08T03:42:55;3.50;;;3.20;;
10246;SDS011;5168;47.854;7.944;2024-03-08T03:45:21;4.10;;;3.47;;
10246;SDS011;5168;47.854;7.944;2024-03-08T03:47:47;4.90;;;3.10;;
10246;SDS011;5168;47.854;7.944;2024-03-08T03:50:13;3.20;;;2.87;;
10246;SDS011;5168;47.854;7.944;2024-03-08T03:52:38;3.87;;;3.37;;
10246;SDS011;5168;47.854;7.944;2024-03-08T03:55:04;4.50;;;3.87;;
10246;SDS011;5168;47.854;7.944;2024-03-08T03:57:30;4.20;;;3.60;;
10246;SDS011;5168;47.854;7.944;2024-03-08T03:59:56;3.53;;;3.07;;
10246;SDS011;5168;47.854;7.944;2024-03-08T04:02:23;3.30;;;3.00;;
10246;SDS011;5168;47.854;7.944;2024-03-08T04:04:51;3.67;;;3.33;;
10246;SDS011;5168;47.854;7.944;2024-03-08T04:07:17;3.73;;;3.33;;
10246;SDS011;5168;47.854;7.944;2024-03-08T04:09:42;4.10;;;3.40;;
10246;SDS011;5168;47.854;7.944;2024-03-08T04:12:08;3.53;;;3.23;;
10246;SDS011;5168;47.854;7.944;2024-03-08T04:14:34;3.30;;;3.00;;
10246;SDS011;5168;47.854;7.944;2024-03-08T04:17:00;3.23;;;2.70;;
10246;SDS011;5168;47.854;7.944;2024-03-08T04:19:27;3.27;;;2.83;;
10246;SDS011;5168;47.854;7.944;2024-03-08T04:21:53;2.77;;;2.53;;
10246;SDS011;5168;47.854;7.944;2024-03-08T04:24:19;3.20;;;2.90;;
10246;SDS011;5168;47.854;7.944;2024-03-08T04:26:46;3.23;;;2.93;;
10246;SDS011;5168;47.854;7.944;2024-03-08T04:29:11;3.07;;;2.80;;
10246;SDS011;5168;47.854;7.944;2024-03-08T04:31:39;2.93;;;2.63;;
10246;SDS011;5168;47.854;7.944;2024-03-08T04:34:05;3.17;;;2.87;;
10246;SDS011;5168;47.854;7.944;2024-03-08T04:36:31;3.10;;;2.80;;
10246;SDS011;5168;47.854;7.944;2024-03-08T04:38:59;2.93;;;2.70;;
10246;SDS011;5168;47.854;7.944;2024-03-08T04:41:25;3.07;;;2.77;;
10246;SDS011;5168;47.854;7.944;2024-03-08T04:43:51;3.07;;;2.77;;
10246;SDS011;5168;47.854;7.944;2024-03-08T04:46:17;3.00;;;2.73;;
10246;SDS011;5168;47.854;7.944;2024-03-08T04:48:44;2.97;;;2.67;;
10246;SDS011;5168;47.854;7.944;2024-03-08T04:51:10;2.53;;;2.33;;
10246;SDS011;5168;47.854;7.944;2024-03-08T04:53:35;2.80;;;2.50;;
10246;SDS011;5168;47.854;7.944;2024-03-08T04:56:01;2.80;;;2.60;;
10246;SDS011;5168;47.854;7.944;2024-03-08T04:58:31;2.40;;;2.20;;
10246;SDS011;5168;47.854;7.944;2024-03-08T05:00:59;2.60;;;2.40;;
10246;SDS011;5168;47.854;7.944;2024-03-08T05:03:26;2.60;;;2.40;;
10246;SDS011;5168;47.854;7.944;2024-03-08T05:05:52;2.47;;;2.27;;
10246;SDS011;5168;47.854;7.944;2024-03-08T05:08:18;2.77;;;2.57;;
10246;SDS011;5168;47.854;7.944;2024-03-08T05:10:44;2.33;;;2.13;;
10246;SDS011;5168;47.854;7.944;2024-03-08T05:13:11;2.50;;;2.30;;
10246;SDS011;5168;47.854;7.944;2024-03-08T05:15:38;2.23;;;2.07;;
10246;SDS011;5168;47.854;7.944;2024-03-08T05:18:04;3.37;;;2.70;;
10246;SDS011;5168;47.854;7.944;2024-03-08T05:20:30;2.60;;;2.40;;
10246;SDS011;5168;47.854;7.944;2024-03-08T05:22:55;2.40;;;2.20;;
10246;SDS011;5168;47.854;7.944;2024-03-08T05:25:23;2.50;;;2.30;;
10246;SDS011;5168;47.854;7.944;2024-03-08T05:27:49;2.43;;;2.23;;
10246;SDS011;5168;47.854;7.944;2024-03-08T05:30:15;2.37;;;2.17;;
10246;SDS011;5168;47.854;7.944;2024-03-08T05:32:41;2.50;;;2.30;;
10246;SDS011;5168;47.854;7.944;2024-03-08T05:35:11;2.93;;;2.33;;
10246;SDS011;5168;47.854;7.944;2024-03-08T05:37:37;2.70;;;2.33;;
10246;SDS011;5168;47.854;7.944;2024-03-08T05:40:04;2.20;;;2.00;;
10246;SDS011;5168;47.854;7.944;2024-03-08T05:42:34;2.40;;;2.20;;
10246;SDS011;5168;47.854;7.944;2024-03-08T05:45:00;2.13;;;1.93;;
10246;SDS011;5168;47.854;7.944;2024-03-08T05:47:26;2.17;;;2.07;;
10246;SDS011;5168;47.854;7.944;2024-03-08T05:49:52;2.43;;;2.23;;
10246;SDS011;5168;47.854;7.944;2024-03-08T05:52:18;2.30;;;2.10;;
10246;SDS011;5168;47.854;7.944;2024-03-08T05:54:44;2.40;;;2.20;;
10246;SDS011;5168;47.854;7.944;2024-03-08T05:57:11;2.00;;;1.90;;
10246;SDS011;5168;47.854;7.944;2024-03-08T05:59:36;2.03;;;1.93;;
10246;SDS011;5168;47.854;7.944;2024-03-08T06:02:02;2.00;;;1.80;;
10246;SDS011;5168;47.854;7.944;2024-03-08T06:04:29;2.40;;;2.20;;
10246;SDS011;5168;47.854;7.944;2024-03-08T06:06:56;2.20;;;2.00;;
10246;SDS011;5168;47.854;7.944;2024-03-08T06:09:23;2.50;;;2.30;;
10246;SDS011;5168;47.854;7.944;2024-03-08T06:11:49;3.67;;;2.00;;
10246;SDS011;5168;47.854;7.944;2024-03-08T06:14:15;2.43;;;2.23;;
10246;SDS011;5168;47.854;7.944;2024-03-08T06:16:46;3.67;;;3.30;;
10246;SDS011;5168;47.854;7.944;2024-03-08T06:19:12;4.07;;;3.10;;
10246;SDS011;5168;47.854;7.944;2024-03-08T06:21:38;2.93;;;2.40;;
10246;SDS011;5168;47.854;7.944;2024-03-08T06:24:04;4.07;;;3.50;;
10246;SDS011;5168;47.854;7.944;2024-03-08T06:26:30;5.53;;;3.67;;
10246;SDS011;5168;47.854;7.944;2024-03-08T06:28:56;6.03;;;4.07;;
10246;SDS011;5168;47.854;7.944;2024-03-08T06:31:22;4.23;;;3.20;;
10246;SDS011;5168;47.854;7.944;2024-03-08T06:33:48;2.50;;;2.30;;
10246;SDS011;5168;47.854;7.944;2024-03-08T06:36:19;2.93;;;2.20;;
10246;SDS011;5168;47.854;7.944;2024-03-08T06:38:46;3.10;;;1.90;;
10246;SDS011;5168;47.854;7.944;2024-03-08T06:41:12;2.27;;;2.07;;
10246;SDS011;5168;47.854;7.944;2024-03-08T06:43:41;2.00;;;1.80;;
10246;SDS011;5168;47.854;7.944;2024-03-08T06:46:10;2.20;;;2.00;;
10246;SDS011;5168;47.854;7.944;2024-03-08T06:48:39;2.17;;;1.97;;
10246;SDS011;5168;47.854;7.944;2024-03-08T06:51:05;1.87;;;1.70;;
10246;SDS011;5168;47.854;7.944;2024-03-08T06:53:31;2.20;;;1.90;;
10246;SDS011;5168;47.854;7.944;2024-03-08T06:56:00;2.27;;;2.10;;
10246;SDS011;5168;47.854;7.944;2024-03-08T06:58:27;1.73;;;1.63;;
10246;SDS011;5168;47.854;7.944;2024-03-08T07:00:53;2.03;;;1.90;;
10246;SDS011;5168;47.854;7.944;2024-03-08T07:03:19;1.90;;;1.70;;
10246;SDS011;5168;47.854;7.944;2024-03-08T07:05:47;2.20;;;1.80;;
10246;SDS011;5168;47.854;7.944;2024-03-08T07:08:12;1.80;;;1.70;;
10246;SDS011;5168;47.854;7.944;2024-03-08T07:10:39;1.90;;;1.80;;
10246;SDS011;5168;47.854;7.944;2024-03-08T07:13:06;1.67;;;1.57;;
10246;SDS011;5168;47.854;7.944;2024-03-08T07:15:32;1.73;;;1.63;;
10246;SDS011;5168;47.854;7.944;2024-03-08T07:17:58;1.70;;;1.60;;
10246;SDS011;5168;47.854;7.944;2024-03-08T07:20:24;1.83;;;1.73;;
10246;SDS011;5168;47.854;7.944;2024-03-08T07:22:50;2.00;;;1.80;;
10246;SDS011;5168;47.854;7.944;2024-03-08T07:25:16;2.90;;;1.70;;
10246;SDS011;5168;47.854;7.944;2024-03-08T07:27:54;1.70;;;1.60;;
10246;SDS011;5168;47.854;7.944;2024-03-08T07:30:21;1.77;;;1.67;;
10246;SDS011;5168;47.854;7.944;2024-03-08T07:33:06;1.70;;;1.60;;
10246;SDS011;5168;47.854;7.944;2024-03-08T07:35:33;1.70;;;1.60;;
10246;SDS011;5168;47.854;7.944;2024-03-08T07:38:02;1.90;;;1.70;;
10246;SDS011;5168;47.854;7.944;2024-03-08T07:40:29;1.70;;;1.60;;
10246;SDS011;5168;47.854;7.944;2024-03-08T07:42:55;1.70;;;1.60;;
10246;SDS011;5168;47.854;7.944;2024-03-08T07:45:20;1.70;;;1.60;;
10246;SDS011;5168;47.854;7.944;2024-03-08T07:47:47;1.70;;;1.60;;
10246;SDS011;5168;47.854;7.944;2024-03-08T07:50:12;1.43;;;1.33;;
10246;SDS011;5168;47.854;7.944;2024-03-08T07:52:41;1.73;;;1.63;;
10246;SDS011;5168;47.854;7.944;2024-03-08T07:55:07;1.70;;;1.60;;
10246;SDS011;5168;47.854;7.944;2024-03-08T07:57:33;1.77;;;1.67;;
10246;SDS011;5168;47.854;7.944;2024-03-08T07:59:59;1.53;;;1.43;;
10246;SDS011;5168;47.854;7.944;2024-03-08T08:02:24;1.83;;;1.73;;
10246;SDS011;5168;47.854;7.944;2024-03-08T08:04:50;1.67;;;1.57;;
10246;SDS011;5168;47.854;7.944;2024-03-08T08:07:16;1.77;;;1.67;;
10246;SDS011;5168;47.854;7.944;2024-03-08T08:09:42;1.80;;;1.70;;
10246;SDS011;5168;47.854;7.944;2024-03-08T08:12:08;1.67;;;1.57;;
10246;SDS011;5168;47.854;7.944;2024-03-08T08:14:37;1.40;;;1.30;;
10246;SDS011;5168;47.854;7.944;2024-03-08T08:17:04;1.50;;;1.40;;
10246;SDS011;5168;47.854;7.944;2024-03-08T08:19:29;1.60;;;1.50;;
10246;SDS011;5168;47.854;7.944;2024-03-08T08:21:55;1.50;;;1.40;;
10246;SDS011;5168;47.854;7.944;2024-03-08T08:24:22;2.40;;;1.67;;
10246;SDS011;5168;47.854;7.944;2024-03-08T08:26:48;2.50;;;1.83;;
10246;SDS011;5168;47.854;7.944;2024-03-08T08:29:13;1.37;;;1.27;;
10246;SDS011;5168;47.854;7.944;2024-03-08T08:31:39;1.50;;;1.40;;
10246;SDS011;5168;47.854;7.944;2024-03-08T08:34:05;1.60;;;1.50;;
10246;SDS011;5168;47.854;7.944;2024-03-08T08:36:31;1.60;;;1.50;;
10246;SDS011;5168;47.854;7.944;2024-03-08T08:38:57;1.70;;;1.60;;
10246;SDS011;5168;47.854;7.944;2024-03-08T08:41:24;1.60;;;1.50;;
10246;SDS011;5168;47.854;7.944;2024-03-08T08:43:50;1.60;;;1.50;;
10246;SDS011;5168;47.854;7.944;2024-03-08T08:46:18;1.67;;;1.57;;
10246;SDS011;5168;47.854;7.944;2024-03-08T08:48:44;1.50;;;1.40;;
10246;SDS011;5168;47.854;7.944;2024-03-08T08:51:12;1.40;;;1.30;;
10246;SDS011;5168;47.854;7.944;2024-03-08T08:53:38;1.30;;;1.20;;
10246;SDS011;5168;47.854;7.944;2024-03-08T08:56:12;1.53;;;1.43;;
10246;SDS011;5168;47.854;7.944;2024-03-08T08:58:44;1.50;;;1.40;;
10246;SDS011;5168;47.854;7.944;2024-03-08T09:01:10;1.67;;;1.57;;
10246;SDS011;5168;47.854;7.944;2024-03-08T09:03:36;2.97;;;2.10;;
10246;SDS011;5168;47.854;7.944;2024-03-08T09:06:05;1.90;;;1.70;;
10246;SDS011;5168;47.854;7.944;2024-03-08T09:08:35;2.07;;;1.87;;
10246;SDS011;5168;47.854;7.944;2024-03-08T09:11:01;1.90;;;1.60;;
10246;SDS011;5168;47.854;7.944;2024-03-08T09:13:27;1.40;;;1.30;;
10246;SDS011;5168;47.854;7.944;2024-03-08T09:15:52;1.57;;;1.43;;
10246;SDS011;5168;47.854;7.944;2024-03-08T09:18:18;1.50;;;1.40;;
10246;SDS011;5168;47.854;7.944;2024-03-08T09:20:44;1.83;;;1.60;;
10246;SDS011;5168;47.854;7.944;2024-03-08T09:23:11;1.77;;;1.57;;
10246;SDS011;5168;47.854;7.944;2024-03-08T09:25:38;1.70;;;1.33;;
10246;SDS011;5168;47.854;7.944;2024-03-08T09:28:03;1.70;;;1.60;;
10246;SDS011;5168;47.854;7.944;2024-03-08T09:30:31;1.53;;;1.43;;
10246;SDS011;5168;47.854;7.944;2024-03-08T09:32:56;1.50;;;1.40;;
10246;SDS011;5168;47.854;7.944;2024-03-08T09:35:22;1.30;;;1.20;;
10246;SDS011;5168;47.854;7.944;2024-03-08T09:37:47;1.43;;;1.33;;
10246;SDS011;5168;47.854;7.944;2024-03-08T09:40:16;2.20;;;1.33;;
10246;SDS011;5168;47.854;7.944;2024-03-08T09:42:44;1.40;;;1.30;;
10246;SDS011;5168;47.854;7.944;2024-03-08T09:45:11;1.27;;;1.17;;
10246;SDS011;5168;47.854;7.944;2024-03-08T09:47:39;1.20;;;1.10;;
10246;SDS011;5168;47.854;7.944;2024-03-08T09:50:07;2.10;;;1.20;;
10246;SDS011;5168;47.854;7.944;2024-03-08T09:52:38;1.80;;;1.53;;
10246;SDS011;5168;47.854;7.944;2024-03-08T09:55:05;1.60;;;1.50;;
10246;SDS011;5168;47.854;7.944;2024-03-08T09:57:35;1.40;;;1.30;;
10246;SDS011;5168;47.854;7.944;2024-03-08T10:00:02;1.53;;;1.33;;
10246;SDS011;5168;47.854;7.944;2024-03-08T10:02:33;1.40;;;1.30;;
10246;SDS011;5168;47.854;7.944;2024-03-08T10:05:00;1.60;;;1.50;;
10246;SDS011;5168;47.854;7.944;2024-03-08T10:07:28;1.60;;;1.30;;
10246;SDS011;5168;47.854;7.944;2024-03-08T10:09:54;1.67;;;1.30;;
10246;SDS011;5168;47.854;7.944;2024-03-08T10:12:19;1.50;;;1.30;;
10246;SDS011;5168;47.854;7.944;2024-03-08T10:14:45;1.30;;;1.20;;
10246;SDS011;5168;47.854;7.944;2024-03-08T10:17:11;1.30;;;1.20;;
10246;SDS011;5168;47.854;7.944;2024-03-08T10:19:37;1.47;;;1.37;;
10246;SDS011;5168;47.854;7.944;2024-03-08T10:22:04;1.73;;;1.20;;
10246;SDS011;5168;47.854;7.944;2024-03-08T10:24:30;2.50;;;1.43;;
10246;SDS011;5168;47.854;7.944;2024-03-08T10:26:59;1.50;;;1.40;;
10246;SDS011;5168;47.854;7.944;2024-03-08T10:29:26;1.93;;;1.20;;
10246;SDS011;5168;47.854;7.944;2024-03-08T10:31:53;1.50;;;1.40;;
10246;SDS011;5168;47.854;7.944;2024-03-08T10:34:21;1.70;;;1.40;;
10246;SDS011;5168;47.854;7.944;2024-03-08T10:36:48;1.40;;;1.30;;
10246;SDS011;5168;47.854;7.944;2024-03-08T10:39:25;1.53;;;1.40;;
10246;SDS011;5168;47.854;7.944;2024-03-08T10:41:56;2.00;;;1.57;;
10246;SDS011;5168;47.854;7.944;2024-03-08T10:49:38;1.40;;;1.30;;
10246;SDS011;5168;47.854;7.944;2024-03-08T10:52:10;1.50;;;1.40;;
10246;SDS011;5168;47.854;7.944;2024-03-08T10:54:38;1.93;;;1.33;;
10246;SDS011;5168;47.854;7.944;2024-03-08T10:57:06;1.35;;;1.20;;
10246;SDS011;5168;47.854;7.944;2024-03-08T10:59:33;1.60;;;1.30;;
10246;SDS011;5168;47.854;7.944;2024-03-08T11:02:00;2.08;;;1.73;;
10246;SDS011;5168;47.854;7.944;2024-03-08T11:04:26;1.88;;;1.60;;
10246;SDS011;5168;47.854;7.944;2024-03-08T11:06:54;2.45;;;1.70;;
10246;SDS011;5168;47.854;7.944;2024-03-08T11:09:31;1.73;;;1.50;;
10246;SDS011;5168;47.854;7.944;2024-03-08T11:12:18;1.88;;;1.50;;
10246;SDS011;5168;47.854;7.944;2024-03-08T11:14:50;2.13;;;1.53;;
10246;SDS011;5168;47.854;7.944;2024-03-08T11:17:26;1.70;;;1.60;;
10246;SDS011;5168;47.854;7.944;2024-03-08T11:19:52;2.20;;;1.48;;
10246;SDS011;5168;47.854;7.944;2024-03-08T11:22:32;1.30;;;1.20;;
10246;SDS011;5168;47.854;7.944;2024-03-08T11:25:01;1.52;;;1.40;;
10246;SDS011;5168;47.854;7.944;2024-03-08T11:27:35;2.08;;;1.63;;
10246;SDS011;5168;47.854;7.944;2024-03-08T11:30:08;4.22;;;1.92;;
10246;SDS011;5168;47.854;7.944;2024-03-08T11:32:36;1.70;;;1.60;;
10246;SDS011;5168;47.854;7.944;2024-03-08T11:35:05;2.45;;;1.60;;
10246;SDS011;5168;47.854;7.944;2024-03-08T11:37:32;2.90;;;2.08;;
10246;SDS011;5168;47.854;7.944;2024-03-08T11:40:02;2.22;;;1.55;;
10246;SDS011;5168;47.854;7.944;2024-03-08T11:42:39;3.42;;;1.40;;
10246;SDS011;5168;47.854;7.944;2024-03-08T11:45:09;1.38;;;1.25;;
10246;SDS011;5168;47.854;7.944;2024-03-08T11:47:36;2.40;;;1.50;;
10246;SDS011;5168;47.854;7.944;2024-03-08T11:50:05;1.83;;;1.40;;
10246;SDS011;5168;47.854;7.944;2024-03-08T11:52:35;1.92;;;1.48;;
10246;SDS011;5168;47.854;7.944;2024-03-08T11:55:01;2.03;;;1.35;;
10246;SDS011;5168;47.854;7.944;2024-03-08T11:57:28;3.15;;;1.65;;
10246;SDS011;5168;47.854;7.944;2024-03-08T11:59:55;2.00;;;1.70;;
10246;SDS011;5168;47.854;7.944;2024-03-08T12:02:31;1.75;;;1.52;;
10246;SDS011;5168;47.854;7.944;2024-03-08T12:05:00;1.50;;;1.40;;
10246;SDS011;5168;47.854;7.944;2024-03-08T12:07:28;1.50;;;1.33;;
10246;SDS011;5168;47.854;7.944;2024-03-08T12:12:43;2.05;;;1.70;;
10246;SDS011;5168;47.854;7.944;2024-03-08T12:15:09;2.42;;;1.70;;
10246;SDS011;5168;47.854;7.944;2024-03-08T12:17:36;2.03;;;1.73;;
10246;SDS011;5168;47.854;7.944;2024-03-08T12:20:14;1.88;;;1.40;;
10246;SDS011;5168;47.854;7.944;2024-03-08T12:22:42;3.63;;;1.70;;
10246;SDS011;5168;47.854;7.944;2024-03-08T12:25:08;2.00;;;1.73;;
10246;SDS011;5168;47.854;7.944;2024-03-08T12:27:36;2.20;;;1.85;;
10246;SDS011;5168;47.854;7.944;2024-03-08T12:35:17;2.85;;;1.85;;
10246;SDS011;5168;47.854;7.944;2024-03-08T12:37:42;2.28;;;1.70;;
10246;SDS011;5168;47.854;7.944;2024-03-08T12:40:09;3.38;;;1.67;;
10246;SDS011;5168;47.854;7.944;2024-03-08T12:42:35;2.28;;;1.63;;
10246;SDS011;5168;47.854;7.944;2024-03-08T12:45:01;1.92;;;1.60;;
10246;SDS011;5168;47.854;7.944;2024-03-08T12:47:27;2.13;;;1.70;;
10246;SDS011;5168;47.854;7.944;2024-03-08T12:49:55;2.17;;;1.70;;
10246;SDS011;5168;47.854;7.944;2024-03-08T12:52:20;1.60;;;1.50;;
10246;SDS011;5168;47.854;7.944;2024-03-08T12:54:46;1.60;;;1.50;;
10246;SDS011;5168;47.854;7.944;2024-03-08T12:57:12;1.95;;;1.80;;
10246;SDS011;5168;47.854;7.944;2024-03-08T12:59:38;2.13;;;1.80;;
10246;SDS011;5168;47.854;7.944;2024-03-08T13:02:04;2.00;;;1.80;;
10246;SDS011;5168;47.854;7.944;2024-03-08T13:04:36;2.28;;;1.75;;
10246;SDS011;5168;47.854;7.944;2024-03-08T13:07:01;2.33;;;2.13;;
10246;SDS011;5168;47.854;7.944;2024-03-08T13:09:28;2.35;;;1.83;;
10246;SDS011;5168;47.854;7.944;2024-03-08T13:11:54;2.65;;;1.88;;
10246;SDS011;5168;47.854;7.944;2024-03-08T13:14:20;2.85;;;1.92;;
10246;SDS011;5168;47.854;7.944;2024-03-08T13:16:47;2.25;;;1.85;;
10246;SDS011;5168;47.854;7.944;2024-03-08T13:19:13;2.50;;;1.60;;
10246;SDS011;5168;47.854;7.944;2024-03-08T13:21:38;2.63;;;1.90;;
10246;SDS011;5168;47.854;7.944;2024-03-08T13:24:04;2.03;;;1.80;;
10246;SDS011;5168;47.854;7.944;2024-03-08T13:26:30;2.45;;;1.80;;
10246;SDS011;5168;47.854;7.944;2024-03-08T13:28:58;2.05;;;1.58;;
10246;SDS011;5168;47.854;7.944;2024-03-08T13:31:24;1.73;;;1.40;;
10246;SDS011;5168;47.854;7.944;2024-03-08T13:33:50;1.83;;;1.63;;
10246;SDS011;5168;47.854;7.944;2024-03-08T13:36:17;1.63;;;1.53;;
10246;SDS011;5168;47.854;7.944;2024-03-08T13:38:46;4.13;;;1.53;;
10246;SDS011;5168;47.854;7.944;2024-03-08T13:41:13;2.33;;;1.80;;
10246;SDS011;5168;47.854;7.944;2024-03-08T13:43:41;2.27;;;1.50;;
10246;SDS011;5168;47.854;7.944;2024-03-08T13:46:08;1.40;;;1.30;;
10246;SDS011;5168;47.854;7.944;2024-03-08T13:48:35;2.13;;;1.53;;
10246;SDS011;5168;47.854;7.944;2024-03-08T13:51:02;2.17;;;1.60;;
10246;SDS011;5168;47.854;7.944;2024-03-08T13:53:29;1.93;;;1.63;;
10246;SDS011;5168;47.854;7.944;2024-03-08T13:55:55;1.73;;;1.60;;
10246;SDS011;5168;47.854;7.944;2024-03-08T13:58:21;1.70;;;1.60;;
10246;SDS011;5168;47.854;7.944;2024-03-08T14:00:47;3.20;;;1.80;;
10246;SDS011;5168;47.854;7.944;2024-03-08T14:03:12;2.40;;;1.83;;
10246;SDS011;5168;47.854;7.944;2024-03-08T14:05:39;2.40;;;2.07;;
10246;SDS011;5168;47.854;7.944;2024-03-08T14:08:06;2.27;;;1.80;;
10246;SDS011;5168;47.854;7.944;2024-03-08T14:10:33;1.90;;;1.80;;
10246;SDS011;5168;47.854;7.944;2024-03-08T14:12:59;1.73;;;1.60;;
10246;SDS011;5168;47.854;7.944;2024-03-08T14:15:25;2.03;;;1.83;;
10246;SDS011;5168;47.854;7.944;2024-03-08T14:17:54;2.30;;;2.03;;
10246;SDS011;5168;47.854;7.944;2024-03-08T14:20:21;2.00;;;1.80;;
10246;SDS011;5168;47.854;7.944;2024-03-08T14:22:53;2.00;;;1.77;;
10246;SDS011;5168;47.854;7.944;2024-03-08T14:25:19;1.80;;;1.70;;
10246;SDS011;5168;47.854;7.944;2024-03-08T14:27:48;2.20;;;1.90;;
10246;SDS011;5168;47.854;7.944;2024-03-08T14:30:14;2.47;;;2.00;;
10246;SDS011;5168;47.854;7.944;2024-03-08T14:32:56;2.10;;;1.90;;
10246;SDS011;5168;47.854;7.944;2024-03-08T14:35:26;2.40;;;2.10;;
10246;SDS011;5168;47.854;7.944;2024-03-08T14:37:52;2.43;;;2.13;;
10246;SDS011;5168;47.854;7.944;2024-03-08T14:40:18;3.30;;;2.07;;
10246;SDS011;5168;47.854;7.944;2024-03-08T14:42:48;2.40;;;2.00;;
10246;SDS011;5168;47.854;7.944;2024-03-08T14:45:16;2.67;;;2.13;;
10246;SDS011;5168;47.854;7.944;2024-03-08T14:47:46;2.60;;;2.07;;
10246;SDS011;5168;47.854;7.944;2024-03-08T14:50:15;2.53;;;1.93;;
10246;SDS011;5168;47.854;7.944;2024-03-08T14:52:50;2.30;;;2.10;;
10246;SDS011;5168;47.854;7.944;2024-03-08T14:55:19;2.20;;;2.00;;
10246;SDS011;5168;47.854;7.944;2024-03-08T14:57:47;2.53;;;2.27;;
10246;SDS011;5168;47.854;7.944;2024-03-08T15:00:17;2.50;;;2.00;;
10246;SDS011;5168;47.854;7.944;2024-03-08T15:02:54;2.57;;;2.20;;
10246;SDS011;5168;47.854;7.944;2024-03-08T15:05:20;2.83;;;2.40;;
10246;SDS011;5168;47.854;7.944;2024-03-08T15:07:51;3.47;;;2.80;;
10246;SDS011;5168;47.854;7.944;2024-03-08T15:10:17;2.47;;;2.27;;